ミラノ/マルペンサ の空港の天気 - METARとTAF

ミラノ・マルペンサ国際空港 ( LIMC / MXP ) - イタリア ミラノ
飛行場実況気象(Metar)
観測時間10/18 09:50 CEST (10/18 07:50 UTC)
風向・風速北北東 2m/s
視程10km以上
天気現象
全天の8割程度の雲 雲底高度 2130m
気温14℃
湿度100%
気圧1018hPa
METARLIMC 180750Z 02004KT 9999 BKN070 14/14 Q1018 NOSIG
過去の天気等 Google飛行場航空写真 Wunderground天気予報

過去48時間のMETAR

飛行場予報(TAF)
発表時間: 10/18 07:00 CEST (10/18 05:00 UTC)
予報対象時間: 18日8時 CEST ~ 19日14時 CEST
風向・風速不定 3m/s
視程6000m
全天の4割程度の雲 雲底高度 610m
全天の8割程度の雲 雲底高度 1220m
18日22時 CEST ~ 19日14時 CEST に一時的に
視程3000m
天気現象
TAF LIMC 180500Z 1806/1912 VRB05KT 6000 SCT020 BKN040
TEMPO 1820/1912 3000 RA